Time;durP1;ratioP1;P1;durP2;ratioP2;P2;SDS_P1;SDS_P2;PMS_P1;PMS_P2;Temp;Humidity;BMP_temperature;BMP_pressure;BME280_temperature;BME280_humidity;BME280_pressure;Samples;Min_cycle;Max_cycle;Signal;HPM_P1;HPM_P2
2021/07/24 00:01:09;;;;;;;18.50;12.05;;;15.90;99.90;;;;;;6134203;23;20018;-81
2021/07/24 00:03:35;;;;;;;16.95;11.60;;;15.90;99.90;;;;;;6130972;23;20018;-81
2021/07/24 00:06:03;;;;;;;21.85;12.00;;;15.90;99.90;;;;;;6130710;23;20053;-82
2021/07/24 00:08:30;;;;;;;20.27;11.43;;;15.90;99.90;;;;;;6132419;23;20024;-82
2021/07/24 00:10:56;;;;;;;24.40;12.38;;;16.00;99.90;;;;;;6133655;23;20623;-81
2021/07/24 00:13:24;;;;;;;21.70;11.95;;;15.90;99.90;;;;;;6120291;23;20014;-83
2021/07/24 00:15:51;;;;;;;21.55;11.98;;;16.00;99.90;;;;;;6121811;23;20014;-82
2021/07/24 00:18:16;;;;;;;19.20;11.48;;;16.00;99.90;;;;;;6118722;23;20013;-81
2021/07/24 00:20:42;;;;;;;18.90;12.05;;;16.00;99.90;;;;;;6133872;23;20018;-82
2021/07/24 00:23:11;;;;;;;24.63;11.90;;;16.00;99.90;;;;;;6127630;23;20018;-82
2021/07/24 00:25:42;;;;;;;19.33;12.63;;;16.00;99.90;;;;;;6119459;23;20021;-82
2021/07/24 00:28:08;;;;;;;18.13;12.00;;;15.90;99.90;;;;;;6118853;23;20021;-82
2021/07/24 00:30:38;;;;;;;23.67;12.68;;;15.90;99.90;;;;;;6121756;23;20010;-81
2021/07/24 00:33:05;;;;;;;19.05;11.98;;;15.90;99.90;;;;;;6119596;23;20022;-81
2021/07/24 00:35:31;;;;;;;19.77;12.23;;;15.90;99.90;;;;;;6131408;23;20010;-82
2021/07/24 00:37:57;;;;;;;22.90;11.98;;;15.90;99.90;;;;;;6120952;23;20017;-81
2021/07/24 00:40:24;;;;;;;19.85;12.18;;;15.80;99.90;;;;;;6120424;23;20021;-81
2021/07/24 00:42:52;;;;;;;19.80;12.90;;;15.90;99.90;;;;;;6130871;23;20018;-82
2021/07/24 00:45:20;;;;;;;21.00;12.68;;;15.80;99.90;;;;;;6131915;23;20014;-82
2021/07/24 00:47:54;;;;;;;19.55;12.45;;;15.80;99.90;;;;;;6121696;23;20786;-82
2021/07/24 00:50:23;;;;;;;23.27;13.40;;;15.70;99.90;;;;;;6131609;23;20438;-81
2021/07/24 00:52:49;;;;;;;22.23;13.75;;;15.70;99.90;;;;;;6134180;23;20024;-82
2021/07/24 00:55:16;;;;;;;35.00;13.45;;;15.70;99.90;;;;;;6128835;23;20096;-82
2021/07/24 00:57:44;;;;;;;20.38;12.70;;;15.70;99.90;;;;;;6127972;23;20019;-82
2021/07/24 01:00:12;;;;;;;22.25;13.43;;;15.70;99.90;;;;;;6164628;23;20052;-81
2021/07/24 01:02:39;;;;;;;21.10;13.32;;;15.60;99.90;;;;;;6165826;23;20445;-82
2021/07/24 01:05:07;;;;;;;21.85;13.75;;;15.60;99.90;;;;;;6129842;23;20052;-81
2021/07/24 01:07:40;;;;;;;23.90;13.48;;;15.60;99.90;;;;;;6137630;23;20053;-81
2021/07/24 01:10:07;;;;;;;26.25;13.57;;;15.50;99.90;;;;;;6154814;23;20009;-82
2021/07/24 01:12:34;;;;;;;19.25;13.20;;;15.50;99.90;;;;;;6130212;23;20404;-82
2021/07/24 01:15:05;;;;;;;21.38;13.35;;;15.50;99.90;;;;;;6129381;23;20053;-81
2021/07/24 01:17:31;;;;;;;24.10;14.32;;;15.40;99.90;;;;;;6139114;23;20021;-81
2021/07/24 01:19:56;;;;;;;23.75;13.48;;;15.40;99.90;;;;;;6154203;23;20013;-81
2021/07/24 01:22:26;;;;;;;21.83;13.85;;;15.30;99.90;;;;;;6129062;23;20014;-81
2021/07/24 01:24:52;;;;;;;23.67;14.27;;;15.40;99.90;;;;;;6139632;23;20013;-82
2021/07/24 01:27:18;;;;;;;21.25;13.82;;;15.30;99.90;;;;;;6130517;23;20028;-82
2021/07/24 01:29:44;;;;;;;25.30;14.60;;;15.30;99.90;;;;;;6165634;23;20401;-82
2021/07/24 01:32:10;;;;;;;28.73;14.95;;;15.20;99.90;;;;;;6165077;23;20021;-82
2021/07/24 01:34:35;;;;;;;27.08;14.93;;;15.20;99.90;;;;;;6155066;23;20016;-81
2021/07/24 01:37:01;;;;;;;27.30;15.10;;;15.20;99.90;;;;;;6128024;23;20076;-82
2021/07/24 01:39:28;;;;;;;27.92;15.43;;;15.20;99.90;;;;;;6155823;23;20414;-82
2021/07/24 01:41:55;;;;;;;27.60;15.60;;;15.10;99.90;;;;;;6136726;23;20100;-81
2021/07/24 01:44:21;;;;;;;24.38;14.73;;;15.10;99.90;;;;;;6130034;23;20009;-81
2021/07/24 01:46:47;;;;;;;25.77;15.57;;;15.10;99.90;;;;;;6144648;23;20033;-81
2021/07/24 01:52:46;;;;;;;27.92;15.95;;;15.20;99.90;;;;;;6166326;23;20025;-81
2021/07/24 01:55:03;;;;;;;24.58;14.93;;;15.10;99.90;;;;;;6182245;23;20032;-81
2021/07/24 01:57:31;;;;;;;23.27;14.93;;;15.10;99.90;;;;;;6156131;23;20016;-81
2021/07/24 02:00:07;;;;;;;27.13;15.25;;;15.10;99.90;;;;;;6132616;23;20017;-81
2021/07/24 02:02:35;;;;;;;26.55;16.08;;;15.00;99.90;;;;;;6138451;23;20080;-81
2021/07/24 02:05:03;;;;;;;28.50;15.77;;;14.90;99.90;;;;;;6104447;23;20009;-82
2021/07/24 02:07:36;;;;;;;24.73;14.63;;;14.90;99.90;;;;;;6135483;23;20572;-81
2021/07/24 02:10:03;;;;;;;25.95;15.52;;;14.90;99.90;;;;;;6155941;23;20020;-81
2021/07/24 02:12:29;;;;;;;25.60;15.20;;;14.90;99.90;;;;;;6138051;23;20014;-82
2021/07/24 02:14:57;;;;;;;27.15;15.48;;;14.80;99.90;;;;;;6128261;23;20010;-82
2021/07/24 02:17:22;;;;;;;25.48;15.82;;;14.80;99.90;;;;;;6128597;23;20010;-81
2021/07/24 02:19:49;;;;;;;27.00;14.85;;;14.80;99.90;;;;;;6129515;23;20505;-81
2021/07/24 02:22:15;;;;;;;31.27;16.13;;;14.80;99.90;;;;;;6127775;23;20020;-81
2021/07/24 02:24:41;;;;;;;27.67;16.48;;;14.80;99.90;;;;;;6164180;23;20366;-81
2021/07/24 02:27:08;;;;;;;28.17;15.77;;;14.80;99.90;;;;;;6128119;23;20018;-81
2021/07/24 02:29:34;;;;;;;23.23;15.57;;;14.70;99.90;;;;;;6138977;23;20010;-82
2021/07/24 02:32:00;;;;;;;29.25;16.73;;;14.70;99.90;;;;;;6137649;23;20019;-81
2021/07/24 02:34:26;;;;;;;27.23;15.23;;;14.70;99.90;;;;;;6112538;23;20020;-82
2021/07/24 02:36:51;;;;;;;31.98;16.42;;;14.70;99.90;;;;;;6163989;23;20025;-81
2021/07/24 02:39:17;;;;;;;31.48;16.38;;;14.70;99.90;;;;;;6126070;23;20434;-81
2021/07/24 02:41:43;;;;;;;24.13;16.00;;;14.60;99.90;;;;;;6138504;23;20025;-82
2021/07/24 02:44:08;;;;;;;29.40;16.98;;;14.60;99.90;;;;;;6129281;23;20025;-81
2021/07/24 02:46:34;;;;;;;28.20;17.13;;;14.60;99.90;;;;;;6125615;23;20016;-81
2021/07/24 02:49:00;;;;;;;26.30;16.45;;;14.60;99.90;;;;;;6164268;23;20425;-82
2021/07/24 02:51:26;;;;;;;29.48;17.27;;;14.60;99.90;;;;;;6138221;23;20009;-81
2021/07/24 02:53:51;;;;;;;27.83;17.45;;;14.60;99.90;;;;;;6156332;23;20077;-81
2021/07/24 02:56:17;;;;;;;28.67;17.42;;;14.60;99.90;;;;;;6153570;23;20021;-81
2021/07/24 02:58:43;;;;;;;27.73;16.10;;;14.60;99.90;;;;;;6139072;23;20013;-82
2021/07/24 03:01:09;;;;;;;28.58;16.55;;;14.60;99.90;;;;;;6102540;23;20024;-82
2021/07/24 03:03:35;;;;;;;30.83;17.40;;;14.60;99.90;;;;;;6154357;23;20017;-81
2021/07/24 03:06:02;;;;;;;28.88;16.58;;;14.50;99.90;;;;;;6136918;23;20033;-82
2021/07/24 03:08:28;;;;;;;28.10;16.27;;;14.50;99.90;;;;;;6134249;23;20009;-81
2021/07/24 03:10:54;;;;;;;23.52;14.98;;;14.50;99.90;;;;;;6154771;23;20446;-82
2021/07/24 03:13:19;;;;;;;27.27;15.73;;;14.40;99.90;;;;;;6126756;23;20092;-81
2021/07/24 03:15:45;;;;;;;24.90;15.02;;;14.50;99.90;;;;;;6127535;23;20032;-81
2021/07/24 03:18:11;;;;;;;33.45;16.30;;;14.40;99.90;;;;;;6163884;23;20081;-81
2021/07/24 03:20:37;;;;;;;27.25;15.80;;;14.50;99.90;;;;;;6128045;23;20099;-81
2021/07/24 03:23:03;;;;;;;28.10;15.45;;;14.50;99.90;;;;;;6159142;23;20060;-82
2021/07/24 03:25:29;;;;;;;23.98;15.65;;;14.50;99.90;;;;;;6136996;23;20020;-81
2021/07/24 03:27:55;;;;;;;25.35;15.50;;;14.50;99.90;;;;;;6138169;23;20013;-82
2021/07/24 03:30:21;;;;;;;25.08;15.82;;;14.50;99.90;;;;;;6127329;23;20501;-81
2021/07/24 03:32:47;;;;;;;26.38;15.48;;;14.50;99.90;;;;;;6154258;23;20331;-82
2021/07/24 03:35:13;;;;;;;30.40;15.35;;;14.50;99.90;;;;;;6154297;23;20068;-82
2021/07/24 03:37:39;;;;;;;25.55;15.02;;;14.50;99.90;;;;;;6153078;23;20029;-82
2021/07/24 03:40:05;;;;;;;27.70;15.35;;;14.50;99.90;;;;;;6165085;23;20133;-81
2021/07/24 03:42:31;;;;;;;30.50;14.85;;;14.50;99.90;;;;;;6137187;23;20013;-81
2021/07/24 03:44:57;;;;;;;25.25;14.65;;;14.50;99.90;;;;;;6137237;23;20544;-81
2021/07/24 03:47:23;;;;;;;23.35;15.00;;;14.60;99.90;;;;;;6162219;23;20052;-81
2021/07/24 03:49:52;;;;;;;27.20;15.50;;;14.50;99.90;;;;;;6129987;23;20021;-82
2021/07/24 03:52:17;;;;;;;24.85;14.00;;;14.40;99.90;;;;;;6163877;23;20018;-81
2021/07/24 03:54:43;;;;;;;27.00;15.95;;;14.50;99.90;;;;;;6125585;23;20018;-81
2021/07/24 03:57:12;;;;;;;27.95;16.25;;;14.50;99.90;;;;;;6134784;23;20423;-82
2021/07/24 03:59:37;;;;;;;26.88;15.07;;;14.50;99.90;;;;;;6132044;23;20017;-81
2021/07/24 04:02:07;;;;;;;28.42;15.20;;;14.50;99.90;;;;;;6122586;23;20022;-81
2021/07/24 04:04:35;;;;;;;25.23;15.55;;;14.50;99.90;;;;;;6129383;23;20419;-81
2021/07/24 04:07:04;;;;;;;26.80;15.90;;;14.50;99.90;;;;;;6134649;23;20450;-82
2021/07/24 04:09:32;;;;;;;24.98;15.40;;;14.60;99.90;;;;;;6122812;23;20010;-81
2021/07/24 04:11:58;;;;;;;29.60;15.88;;;14.60;99.90;;;;;;6134428;23;20014;-81
2021/07/24 04:14:25;;;;;;;26.23;16.05;;;14.60;99.90;;;;;;6133516;23;20020;-81
2021/07/24 04:16:52;;;;;;;28.95;16.13;;;14.60;99.90;;;;;;6132281;23;20050;-81
2021/07/24 04:19:17;;;;;;;27.35;15.40;;;14.70;99.90;;;;;;6123279;23;20030;-81
2021/07/24 04:21:43;;;;;;;24.90;15.05;;;14.70;99.90;;;;;;6097729;23;20018;-81
2021/07/24 04:24:09;;;;;;;29.52;14.85;;;14.70;99.90;;;;;;6121306;23;20022;-81
2021/07/24 04:26:34;;;;;;;25.77;14.38;;;14.80;99.90;;;;;;6134563;23;20037;-81
2021/07/24 04:29:08;;;;;;;24.77;14.07;;;14.80;99.90;;;;;;6124416;23;20080;-81
2021/07/24 04:31:33;;;;;;;22.02;13.68;;;14.90;99.90;;;;;;6133313;23;20024;-81
2021/07/24 04:33:59;;;;;;;20.25;13.60;;;14.80;99.90;;;;;;6121410;23;20108;-81
2021/07/24 04:36:25;;;;;;;21.38;12.95;;;14.90;99.90;;;;;;6131925;23;20390;-82
2021/07/24 04:38:54;;;;;;;21.63;13.50;;;14.90;99.90;;;;;;6123616;23;20017;-84
2021/07/24 04:41:21;;;;;;;21.92;13.55;;;15.00;99.90;;;;;;6131387;23;20014;-82
2021/07/24 04:43:53;;;;;;;24.55;13.10;;;15.00;99.90;;;;;;6122959;23;20010;-81
2021/07/24 04:46:20;;;;;;;21.60;13.32;;;15.00;99.90;;;;;;6119835;23;20029;-83
2021/07/24 04:48:45;;;;;;;26.67;12.90;;;15.00;99.90;;;;;;6121536;23;20489;-83
2021/07/24 04:51:15;;;;;;;19.58;12.75;;;15.10;99.90;;;;;;6123126;23;20009;-83
2021/07/24 04:53:45;;;;;;;21.38;12.27;;;15.10;99.90;;;;;;6125140;23;20088;-82
2021/07/24 04:56:11;;;;;;;20.52;12.82;;;15.20;99.90;;;;;;6127699;23;20040;-82
2021/07/24 04:58:37;;;;;;;20.02;12.65;;;15.20;99.90;;;;;;6164347;23;20080;-83
2021/07/24 05:01:04;;;;;;;24.42;13.25;;;15.30;99.90;;;;;;6151816;23;20043;-83
2021/07/24 05:03:32;;;;;;;20.08;12.10;;;15.30;99.90;;;;;;6160301;23;20501;-82
2021/07/24 05:05:59;;;;;;;22.60;12.98;;;15.50;99.90;;;;;;6151002;23;20009;-82
2021/07/24 05:08:25;;;;;;;19.83;12.48;;;15.50;99.90;;;;;;6157983;23;20075;-82
2021/07/24 05:10:51;;;;;;;21.55;12.20;;;15.60;99.90;;;;;;6161663;23;20096;-83
2021/07/24 05:13:16;;;;;;;19.98;11.60;;;15.50;99.90;;;;;;6160886;23;20017;-81
2021/07/24 05:15:42;;;;;;;18.67;12.30;;;15.70;99.90;;;;;;6152034;23;20338;-81
2021/07/24 05:18:08;;;;;;;16.73;10.73;;;15.80;99.90;;;;;;6126062;23;20009;-81
2021/07/24 05:20:34;;;;;;;16.75;10.73;;;15.80;99.90;;;;;;6161940;23;20587;-81
2021/07/24 05:23:00;;;;;;;20.42;10.85;;;15.90;99.90;;;;;;6134077;23;20018;-81
2021/07/24 05:25:25;;;;;;;17.60;10.55;;;16.00;99.90;;;;;;6153549;23;20032;-81
2021/07/24 05:27:51;;;;;;;16.80;10.95;;;16.00;99.90;;;;;;6127647;23;20014;-81
2021/07/24 05:30:18;;;;;;;15.57;10.65;;;16.10;99.90;;;;;;6128361;23;20020;-81
2021/07/24 05:32:43;;;;;;;15.32;10.60;;;16.10;99.90;;;;;;6154785;23;20101;-81
2021/07/24 05:35:10;;;;;;;15.98;9.75;;;16.20;99.90;;;;;;6138394;23;20064;-82
2021/07/24 05:37:36;;;;;;;15.65;9.90;;;16.30;99.90;;;;;;6133531;23;20048;-81
2021/07/24 05:40:04;;;;;;;16.52;9.60;;;16.30;99.90;;;;;;6131871;23;20300;-81
2021/07/24 05:42:31;;;;;;;13.32;8.95;;;16.20;99.90;;;;;;6165265;23;20048;-82
2021/07/24 05:44:57;;;;;;;13.57;9.63;;;16.20;99.90;;;;;;6165105;23;20362;-82
2021/07/24 05:47:23;;;;;;;16.10;9.27;;;16.30;99.90;;;;;;6154648;23;20310;-82
2021/07/24 05:49:50;;;;;;;14.82;9.00;;;16.40;99.90;;;;;;6126464;23;20024;-80
2021/07/24 05:52:16;;;;;;;12.82;8.75;;;16.50;99.90;;;;;;6124607;23;20140;-79
2021/07/24 05:54:42;;;;;;;16.42;8.82;;;16.50;99.90;;;;;;6121694;23;20450;-79
2021/07/24 05:57:08;;;;;;;16.27;9.02;;;16.60;99.90;;;;;;6131997;23;20017;-79
2021/07/24 05:59:34;;;;;;;24.20;9.00;;;16.70;99.90;;;;;;6120851;23;20446;-81
2021/07/24 06:02:01;;;;;;;18.55;9.32;;;16.80;99.90;;;;;;6122138;23;20014;-82
2021/07/24 06:04:29;;;;;;;13.57;8.80;;;16.80;99.90;;;;;;6124085;23;20014;-80
2021/07/24 06:06:55;;;;;;;15.77;8.82;;;16.90;99.90;;;;;;6133140;23;20068;-80
2021/07/24 06:09:21;;;;;;;13.95;8.55;;;16.80;99.90;;;;;;6121196;23;20285;-81
2021/07/24 06:11:47;;;;;;;12.75;8.63;;;16.90;99.90;;;;;;6120066;23;20021;-80
2021/07/24 06:14:13;;;;;;;15.07;8.70;;;17.00;99.90;;;;;;6131029;23;20014;-80
2021/07/24 06:16:39;;;;;;;11.85;8.40;;;17.00;99.90;;;;;;6132999;23;20014;-80
2021/07/24 06:19:05;;;;;;;14.23;8.15;;;17.10;99.90;;;;;;6123494;23;20033;-80
2021/07/24 06:21:30;;;;;;;14.73;7.57;;;17.20;99.90;;;;;;6124512;23;20018;-78
2021/07/24 06:23:56;;;;;;;12.18;7.95;;;17.20;99.90;;;;;;6127885;23;20069;-78
2021/07/24 06:26:22;;;;;;;10.52;7.28;;;17.20;99.90;;;;;;6136076;23;20017;-80
2021/07/24 06:28:49;;;;;;;17.38;7.90;;;17.30;99.90;;;;;;6134368;23;20010;-79
2021/07/24 06:31:16;;;;;;;14.68;7.65;;;17.30;99.90;;;;;;6134147;23;20097;-80
2021/07/24 06:33:41;;;;;;;14.38;8.25;;;17.40;99.90;;;;;;6133958;23;20053;-75
2021/07/24 06:36:07;;;;;;;12.35;8.10;;;17.50;99.90;;;;;;6135028;23;20088;-78
2021/07/24 06:38:33;;;;;;;11.40;7.65;;;17.60;99.90;;;;;;6131263;23;20093;-80
2021/07/24 06:41:00;;;;;;;12.57;7.78;;;17.60;99.90;;;;;;6135481;23;20339;-79
2021/07/24 06:43:31;;;;;;;10.70;8.02;;;17.70;99.90;;;;;;6122188;23;20081;-82
2021/07/24 06:45:57;;;;;;;12.68;8.60;;;17.80;99.90;;;;;;6123545;23;20014;-79
2021/07/24 06:48:23;;;;;;;12.15;8.70;;;17.90;99.90;;;;;;6133519;23;20013;-76
2021/07/24 06:50:49;;;;;;;14.30;8.40;;;17.90;99.90;;;;;;6132457;23;20017;-79
2021/07/24 06:53:14;;;;;;;15.60;8.10;;;17.90;99.90;;;;;;6131740;23;20010;-78
2021/07/24 06:55:40;;;;;;;14.05;8.32;;;17.90;99.90;;;;;;6149645;23;20017;-79
2021/07/24 06:58:06;;;;;;;12.68;8.05;;;18.00;99.90;;;;;;6152358;23;20457;-77
2021/07/24 07:00:32;;;;;;;13.23;8.20;;;18.00;99.90;;;;;;6164277;23;20128;-78
2021/07/24 07:02:59;;;;;;;13.20;8.15;;;18.10;99.90;;;;;;6134832;23;20024;-76
2021/07/24 07:05:25;;;;;;;16.45;8.00;;;18.10;99.90;;;;;;6152851;23;20025;-76
2021/07/24 07:07:52;;;;;;;14.32;8.73;;;18.20;99.90;;;;;;6128447;23;20013;-76
2021/07/24 07:10:18;;;;;;;15.75;7.95;;;18.40;99.90;;;;;;6127215;23;20032;-77
2021/07/24 07:12:43;;;;;;;13.93;7.65;;;18.40;99.90;;;;;;6128087;23;20434;-76
2021/07/24 07:15:10;;;;;;;10.52;7.70;;;18.50;99.90;;;;;;6163197;23;20013;-79
2021/07/24 07:17:36;;;;;;;14.90;8.07;;;18.60;99.90;;;;;;6152725;23;20092;-77
2021/07/24 07:20:11;;;;;;;12.38;8.25;;;18.70;99.90;;;;;;6163797;23;20083;-77
2021/07/24 07:22:37;;;;;;;13.70;8.02;;;18.80;99.90;;;;;;6163713;23;20346;-76
2021/07/24 07:25:03;;;;;;;13.05;7.78;;;18.90;99.90;;;;;;6153163;23;20009;-78
2021/07/24 07:27:29;;;;;;;18.70;8.45;;;18.90;99.90;;;;;;6152247;23;20040;-76
2021/07/24 07:29:55;;;;;;;11.45;7.90;;;19.00;99.90;;;;;;6136370;23;20387;-78
2021/07/24 07:32:21;;;;;;;14.13;7.57;;;19.10;99.90;;;;;;6133656;23;20114;-77
2021/07/24 07:34:47;;;;;;;11.93;7.28;;;19.20;99.90;;;;;;6123946;23;20121;-78
2021/07/24 07:37:12;;;;;;;13.77;8.25;;;19.30;99.90;;;;;;6125390;23;20051;-76
2021/07/24 07:39:38;;;;;;;12.90;7.82;;;19.40;99.90;;;;;;6160089;23;20068;-79
2021/07/24 07:42:04;;;;;;;15.23;8.02;;;19.40;99.90;;;;;;6161198;23;20028;-78
2021/07/24 07:44:29;;;;;;;9.77;7.22;;;19.50;99.90;;;;;;6150784;23;20017;-78
2021/07/24 07:46:56;;;;;;;11.93;7.43;;;19.40;99.90;;;;;;6160454;23;20394;-79
2021/07/24 07:49:22;;;;;;;9.23;7.57;;;19.50;99.90;;;;;;6103052;23;20018;-79
2021/07/24 07:51:48;;;;;;;16.08;12.45;;;19.50;99.90;;;;;;6164003;23;20017;-80
2021/07/24 07:54:14;;;;;;;15.30;9.52;;;19.60;99.90;;;;;;6128139;23;20088;-80
2021/07/24 07:56:40;;;;;;;17.63;7.97;;;19.60;99.90;;;;;;6154546;23;20323;-80
2021/07/24 07:59:06;;;;;;;15.15;9.15;;;19.70;99.90;;;;;;6155362;23;20017;-80
2021/07/24 08:01:31;;;;;;;12.82;8.93;;;19.80;99.90;;;;;;6163343;23;20017;-80
2021/07/24 08:03:57;;;;;;;11.48;7.60;;;19.90;99.90;;;;;;6127779;23;20109;-80
2021/07/24 08:06:23;;;;;;;12.48;8.15;;;19.90;99.90;;;;;;6153891;23;20040;-82
2021/07/24 08:08:50;;;;;;;13.60;8.40;;;20.00;99.90;;;;;;6102974;23;20092;-81
2021/07/24 08:11:16;;;;;;;16.70;8.68;;;20.00;99.90;;;;;;6127798;23;20304;-80
2021/07/24 08:13:42;;;;;;;12.93;7.97;;;20.10;99.90;;;;;;6137918;23;20013;-80
2021/07/24 08:16:15;;;;;;;13.07;8.43;;;20.20;99.90;;;;;;6154971;23;20028;-81
2021/07/24 08:18:41;;;;;;;12.35;8.27;;;20.30;99.90;;;;;;6128097;23;20079;-79
2021/07/24 08:21:07;;;;;;;13.27;8.40;;;20.30;99.90;;;;;;6138785;23;20017;-81
2021/07/24 08:23:33;;;;;;;16.23;7.72;;;20.50;99.90;;;;;;6127846;23;20370;-81
2021/07/24 08:25:58;;;;;;;11.77;7.90;;;20.40;99.90;;;;;;6136827;23;20009;-81
2021/07/24 08:28:28;;;;;;;11.77;8.18;;;20.50;99.90;;;;;;6101683;23;20338;-80
2021/07/24 08:30:54;;;;;;;13.30;7.60;;;20.60;99.90;;;;;;6127940;23;20545;-81
2021/07/24 08:33:21;;;;;;;10.82;7.47;;;20.70;99.90;;;;;;6135120;23;20155;-80
2021/07/24 08:35:47;;;;;;;12.25;7.25;;;20.70;99.90;;;;;;6150795;23;20093;-80
2021/07/24 08:38:12;;;;;;;11.30;7.20;;;20.80;99.90;;;;;;6150085;23;20052;-80
2021/07/24 08:40:39;;;;;;;12.20;7.53;;;20.90;99.90;;;;;;6151227;23;20025;-80
2021/07/24 08:43:06;;;;;;;10.45;6.85;;;21.00;99.90;;;;;;6160312;23;20013;-81
2021/07/24 08:45:32;;;;;;;9.48;7.18;;;21.10;99.90;;;;;;6133081;23;20024;-78
2021/07/24 08:47:59;;;;;;;15.13;7.00;;;21.20;99.90;;;;;;6123958;23;20155;-78
2021/07/24 08:50:25;;;;;;;8.95;6.45;;;21.30;99.90;;;;;;6161111;23;20029;-80
2021/07/24 08:52:54;;;;;;;9.48;6.68;;;21.30;99.90;;;;;;6150112;23;20422;-82
2021/07/24 08:55:23;;;;;;;10.82;6.68;;;21.50;99.90;;;;;;6148001;23;20021;-82
2021/07/24 08:57:54;;;;;;;12.25;7.60;;;21.60;99.90;;;;;;6160343;23;20109;-82
2021/07/24 09:00:22;;;;;;;10.45;7.28;;;21.60;99.90;;;;;;6125014;23;20020;-78
2021/07/24 09:02:50;;;;;;;13.32;7.43;;;21.60;99.90;;;;;;6161089;23;20017;-80
2021/07/24 09:05:17;;;;;;;14.30;7.45;;;21.70;99.90;;;;;;6126011;23;20095;-79
2021/07/24 09:07:50;;;;;;;9.68;7.05;;;21.80;99.90;;;;;;6136229;23;20105;-80
2021/07/24 09:10:18;;;;;;;11.90;7.32;;;22.00;99.90;;;;;;6126441;23;20418;-79
2021/07/24 09:12:48;;;;;;;9.82;7.82;;;22.00;99.90;;;;;;6135375;23;20018;-79
2021/07/24 09:15:17;;;;;;;11.10;7.65;;;22.20;99.90;;;;;;6136331;23;20014;-80
2021/07/24 09:17:44;;;;;;;9.40;7.35;;;22.30;99.90;;;;;;6128455;23;20010;-80
2021/07/24 09:20:10;;;;;;;9.10;7.47;;;22.40;99.90;;;;;;6136092;23;20025;-80
2021/07/24 09:22:38;;;;;;;16.98;9.00;;;22.50;99.90;;;;;;6136450;23;20028;-76
2021/07/24 09:25:08;;;;;;;14.80;8.23;;;22.50;99.90;;;;;;6128197;23;20064;-78
2021/07/24 09:27:39;;;;;;;12.63;8.18;;;22.70;99.90;;;;;;6125723;23;20045;-79
2021/07/24 09:30:06;;;;;;;10.30;7.45;;;22.80;99.90;;;;;;6126841;23;20052;-80
2021/07/24 09:32:33;;;;;;;12.60;7.68;;;22.90;99.90;;;;;;6123751;23;20330;-79
2021/07/24 09:35:00;;;;;;;10.85;7.95;;;23.10;99.90;;;;;;6127576;23;20044;-79
2021/07/24 09:37:32;;;;;;;11.98;7.78;;;23.10;99.90;;;;;;6149582;23;20017;-79
2021/07/24 09:40:21;;;;;;;11.38;7.05;;;23.20;99.90;;;;;;6129129;23;20024;-80
2021/07/24 09:42:47;;;;;;;9.82;6.75;;;23.20;99.90;;;;;;6135437;23;20046;-79
2021/07/24 09:45:13;;;;;;;12.57;7.88;;;23.20;99.90;;;;;;6135497;23;20013;-80
2021/07/24 09:47:39;;;;;;;9.98;7.35;;;23.30;99.90;;;;;;6150425;23;20543;-81
2021/07/24 09:50:10;;;;;;;14.85;8.05;;;23.40;99.90;;;;;;6153689;23;20014;-80
2021/07/24 09:52:52;;;;;;;11.98;7.03;;;23.60;99.90;;;;;;6126901;23;20070;-80
2021/07/24 09:55:25;;;;;;;10.57;6.65;;;23.80;99.90;;;;;;6130118;23;20114;-79
2021/07/24 09:57:56;;;;;;;9.25;6.80;;;23.70;99.90;;;;;;6163370;23;20139;-78
2021/07/24 10:00:24;;;;;;;11.52;6.55;;;23.90;99.90;;;;;;6126478;23;20028;-78
2021/07/24 10:03:00;;;;;;;7.38;6.10;;;24.00;99.90;;;;;;6161648;23;20024;-79
2021/07/24 10:05:40;;;;;;;14.25;6.68;;;24.20;99.90;;;;;;6125821;23;20414;-78
2021/07/24 10:08:13;;;;;;;12.63;7.03;;;24.50;99.90;;;;;;6135529;23;20013;-79
2021/07/24 10:10:40;;;;;;;9.68;6.68;;;24.60;99.90;;;;;;6157593;23;20131;-81
2021/07/24 10:13:16;;;;;;;11.23;6.20;;;24.60;99.90;;;;;;6125597;23;20040;-81
2021/07/24 10:15:45;;;;;;;14.15;6.78;;;24.60;99.90;;;;;;6164983;23;20100;-80
2021/07/24 10:18:15;;;;;;;11.88;6.32;;;24.60;99.90;;;;;;6138170;23;20430;-80
2021/07/24 10:20:50;;;;;;;12.90;6.43;;;24.60;99.90;;;;;;6100974;23;20026;-79
2021/07/24 10:23:20;;;;;;;10.90;6.38;;;24.40;99.90;;;;;;6161937;23;20037;-79
2021/07/24 10:25:59;;;;;;;14.30;6.32;;;24.50;99.90;;;;;;6155255;23;20425;-79
2021/07/24 10:28:33;;;;;;;8.70;6.65;;;24.60;99.90;;;;;;6126688;23;20369;-80
2021/07/24 10:31:08;;;;;;;7.90;5.88;;;24.80;99.90;;;;;;6161434;23;20075;-80
2021/07/24 10:33:36;;;;;;;9.25;5.80;;;25.00;99.90;;;;;;6151956;23;20434;-79
2021/07/24 10:36:14;;;;;;;9.38;5.47;;;24.80;99.90;;;;;;6137706;23;20456;-80
2021/07/24 10:39:16;;;;;;;8.63;5.35;;;24.90;99.90;;;;;;6112298;23;20384;-80
2021/07/24 10:41:52;;;;;;;10.02;5.85;;;25.00;99.90;;;;;;6114685;23;20059;-79
2021/07/24 10:44:23;;;;;;;9.15;5.78;;;25.30;99.90;;;;;;6161514;23;20463;-79
2021/07/24 10:46:49;;;;;;;15.52;6.00;;;25.40;99.90;;;;;;6124814;23;20017;-79
2021/07/24 10:49:33;;;;;;;11.43;5.90;;;25.30;99.90;;;;;;6136812;23;20009;-78
2021/07/24 10:51:59;;;;;;;9.65;5.95;;;25.20;99.90;;;;;;6135082;23;20025;-79
2021/07/24 10:54:28;;;;;;;13.90;6.82;;;25.30;99.90;;;;;;6132710;23;20025;-79
2021/07/24 10:56:54;;;;;;;7.85;6.60;;;25.50;99.90;;;;;;6152596;23;20093;-80
2021/07/24 10:59:27;;;;;;;16.15;7.03;;;25.70;99.90;;;;;;6160487;23;20014;-79
2021/07/24 11:02:00;;;;;;;11.48;6.85;;;25.90;99.90;;;;;;6159336;23;20378;-80
2021/07/24 11:04:36;;;;;;;15.25;7.00;;;25.90;99.90;;;;;;6129476;23;20017;-81
2021/07/24 11:07:14;;;;;;;10.63;6.68;;;26.20;99.90;;;;;;6161597;23;20013;-80
2021/07/24 11:09:44;;;;;;;9.38;6.63;;;26.30;99.90;;;;;;6157956;23;20458;-81
2021/07/24 11:12:17;;;;;;;10.15;7.25;;;26.30;99.90;;;;;;6134688;23;20357;-83
2021/07/24 11:14:51;;;;;;;9.75;6.82;;;26.60;99.90;;;;;;6134810;23;20084;-80
2021/07/24 11:17:18;;;;;;;10.93;7.40;;;26.70;99.90;;;;;;6128613;23;20068;-81
2021/07/24 11:19:51;;;;;;;15.32;7.70;;;26.70;99.90;;;;;;6137431;23;20079;-80
2021/07/24 11:22:18;;;;;;;13.60;7.28;;;26.80;99.90;;;;;;6126237;23;20045;-79
2021/07/24 11:25:04;;;;;;;12.75;7.68;;;26.90;99.90;;;;;;6162850;23;20013;-78
2021/07/24 11:27:34;;;;;;;12.73;7.07;;;27.10;99.90;;;;;;6137129;23;20435;-80
2021/07/24 11:30:09;;;;;;;11.57;6.82;;;27.00;99.90;;;;;;6163978;23;20017;-80
2021/07/24 11:32:38;;;;;;;10.70;7.00;;;27.50;99.90;;;;;;6136459;23;20047;-80
2021/07/24 11:35:14;;;;;;;11.73;6.95;;;27.20;99.90;;;;;;6136879;23;20009;-80
2021/07/24 11:37:49;;;;;;;9.85;7.20;;;27.20;99.90;;;;;;6126203;23;20051;-82
2021/07/24 11:40:18;;;;;;;11.85;8.05;;;26.90;99.90;;;;;;6128420;23;20089;-80
2021/07/24 11:43:04;;;;;;;15.02;7.13;;;26.70;99.90;;;;;;6137513;23;20014;-80
2021/07/24 11:45:32;;;;;;;11.70;6.80;;;26.70;99.90;;;;;;6154677;23;20018;-81
2021/07/24 11:48:06;;;;;;;13.70;6.63;;;26.90;99.90;;;;;;6154512;23;20025;-80
2021/07/24 11:50:31;;;;;;;10.73;6.75;;;27.10;99.90;;;;;;6138266;23;20010;-81
2021/07/24 11:52:57;;;;;;;10.23;6.68;;;27.10;99.90;;;;;;6128018;23;20024;-81
2021/07/24 11:55:26;;;;;;;8.60;6.57;;;27.10;99.90;;;;;;6127476;23;20048;-80
2021/07/24 11:58:05;;;;;;;12.52;7.22;;;27.10;99.90;;;;;;6164058;23;20017;-81
2021/07/24 12:00:33;;;;;;;10.93;7.18;;;27.20;99.70;;;;;;6127662;23;20017;-80
2021/07/24 12:03:33;;;;;;;14.85;6.80;;;27.20;99.90;;;;;;6127216;23;20422;-80
2021/07/24 12:06:14;;;;;;;10.63;6.63;;;27.30;99.90;;;;;;6045630;23;20047;-83
2021/07/24 12:08:43;;;;;;;9.30;6.25;;;27.10;99.90;;;;;;6064358;23;20083;-83
2021/07/24 12:11:14;;;;;;;10.65;6.20;;;27.40;99.90;;;;;;6072946;23;20505;-82
2021/07/24 12:13:40;;;;;;;22.52;6.18;;;27.60;99.90;;;;;;6075024;23;20119;-83
2021/07/24 12:16:10;;;;;;;9.20;6.15;;;27.90;99.90;;;;;;6063013;23;20424;-81
2021/07/24 12:18:53;;;;;;;7.40;5.72;;;27.80;99.00;;;;;;6047922;23;20629;-81
2021/07/24 12:21:32;;;;;;;7.90;5.45;;;28.30;99.70;;;;;;6039218;23;20018;-83
2021/07/24 12:24:00;;;;;;;11.52;6.00;;;28.30;99.30;;;;;;6062977;23;20019;-80
2021/07/24 12:26:28;;;;;;;10.30;6.53;;;28.30;98.50;;;;;;6063656;23;20014;-81
2021/07/24 12:28:58;;;;;;;11.35;6.55;;;28.30;98.50;;;;;;6066886;23;20038;-79
2021/07/24 12:31:33;;;;;;;12.02;5.75;;;28.20;98.60;;;;;;6071902;23;20070;-80
2021/07/24 12:34:14;;;;;;;10.02;5.80;;;28.30;99.00;;;;;;6038985;23;20022;-83
2021/07/24 12:36:51;;;;;;;10.30;6.30;;;28.20;98.00;;;;;;6072096;23;20913;-79
2021/07/24 12:39:19;;;;;;;8.55;6.18;;;28.50;98.60;;;;;;6072847;23;20019;-80
2021/07/24 12:41:55;;;;;;;13.43;6.07;;;28.50;97.50;;;;;;6115707;23;20021;-81